sensor_id;sensor_type;location;lat;lon;timestamp;P1;durP1;ratioP1;P2;durP2;ratioP2
50495;SDS011;38806;51.554;5.704;2023-07-22T00:01:00;23.20;;;10.93;;
50495;SDS011;38806;51.554;5.704;2023-07-22T00:03:00;14.48;;;9.98;;
50495;SDS011;38806;51.554;5.704;2023-07-22T00:05:00;16.42;;;9.90;;
50495;SDS011;38806;51.554;5.704;2023-07-22T00:07:00;15.98;;;9.10;;
50495;SDS011;38806;51.554;5.704;2023-07-22T00:09:01;18.98;;;9.70;;
50495;SDS011;38806;51.554;5.704;2023-07-22T00:11:01;14.80;;;9.55;;
50495;SDS011;38806;51.554;5.704;2023-07-22T00:13:01;17.33;;;10.53;;
50495;SDS011;38806;51.554;5.704;2023-07-22T00:15:01;17.25;;;9.57;;
50495;SDS011;38806;51.554;5.704;2023-07-22T00:17:02;17.67;;;10.10;;
50495;SDS011;38806;51.554;5.704;2023-07-22T00:19:02;15.18;;;10.00;;
50495;SDS011;38806;51.554;5.704;2023-07-22T00:21:02;16.23;;;9.63;;
50495;SDS011;38806;51.554;5.704;2023-07-22T00:23:02;16.48;;;9.70;;
50495;SDS011;38806;51.554;5.704;2023-07-22T00:25:03;15.47;;;9.60;;
50495;SDS011;38806;51.554;5.704;2023-07-22T00:27:03;16.10;;;9.48;;
50495;SDS011;38806;51.554;5.704;2023-07-22T00:29:03;16.25;;;9.25;;
50495;SDS011;38806;51.554;5.704;2023-07-22T00:31:04;16.90;;;9.85;;
50495;SDS011;38806;51.554;5.704;2023-07-22T00:33:05;13.73;;;8.20;;
50495;SDS011;38806;51.554;5.704;2023-07-22T00:35:05;16.80;;;11.02;;
50495;SDS011;38806;51.554;5.704;2023-07-22T00:37:06;18.05;;;10.68;;
50495;SDS011;38806;51.554;5.704;2023-07-22T00:39:06;17.52;;;10.90;;
50495;SDS011;38806;51.554;5.704;2023-07-22T00:41:06;18.02;;;11.07;;
50495;SDS011;38806;51.554;5.704;2023-07-22T00:43:07;17.83;;;10.68;;
50495;SDS011;38806;51.554;5.704;2023-07-22T00:45:07;19.75;;;9.35;;
50495;SDS011;38806;51.554;5.704;2023-07-22T00:47:08;20.40;;;11.88;;
50495;SDS011;38806;51.554;5.704;2023-07-22T00:49:08;15.73;;;9.18;;
50495;SDS011;38806;51.554;5.704;2023-07-22T00:51:08;17.55;;;10.68;;
50495;SDS011;38806;51.554;5.704;2023-07-22T00:53:09;16.70;;;10.73;;
50495;SDS011;38806;51.554;5.704;2023-07-22T00:55:09;16.65;;;9.77;;
50495;SDS011;38806;51.554;5.704;2023-07-22T00:57:09;19.40;;;11.93;;
50495;SDS011;38806;51.554;5.704;2023-07-22T00:59:10;16.33;;;9.50;;
50495;SDS011;38806;51.554;5.704;2023-07-22T01:01:10;18.10;;;11.93;;
50495;SDS011;38806;51.554;5.704;2023-07-22T01:03:10;23.20;;;10.93;;
50495;SDS011;38806;51.554;5.704;2023-07-22T01:05:11;16.60;;;10.60;;
50495;SDS011;38806;51.554;5.704;2023-07-22T01:07:12;21.40;;;12.10;;
50495;SDS011;38806;51.554;5.704;2023-07-22T01:09:12;24.10;;;10.20;;
50495;SDS011;38806;51.554;5.704;2023-07-22T01:11:13;20.08;;;11.45;;
50495;SDS011;38806;51.554;5.704;2023-07-22T01:13:13;16.40;;;10.45;;
50495;SDS011;38806;51.554;5.704;2023-07-22T01:15:14;14.23;;;9.77;;
50495;SDS011;38806;51.554;5.704;2023-07-22T01:17:14;16.60;;;10.50;;
50495;SDS011;38806;51.554;5.704;2023-07-22T01:19:14;17.33;;;10.00;;
50495;SDS011;38806;51.554;5.704;2023-07-22T01:21:14;25.15;;;12.48;;
50495;SDS011;38806;51.554;5.704;2023-07-22T01:23:15;15.52;;;9.95;;
50495;SDS011;38806;51.554;5.704;2023-07-22T01:25:15;19.27;;;11.63;;
50495;SDS011;38806;51.554;5.704;2023-07-22T01:27:16;17.13;;;9.88;;
50495;SDS011;38806;51.554;5.704;2023-07-22T01:29:16;16.70;;;10.63;;
50495;SDS011;38806;51.554;5.704;2023-07-22T01:31:16;19.63;;;10.32;;
50495;SDS011;38806;51.554;5.704;2023-07-22T01:33:16;18.83;;;11.30;;
50495;SDS011;38806;51.554;5.704;2023-07-22T01:35:16;16.58;;;10.02;;
50495;SDS011;38806;51.554;5.704;2023-07-22T01:37:16;20.15;;;12.60;;
50495;SDS011;38806;51.554;5.704;2023-07-22T01:39:17;17.15;;;10.63;;
50495;SDS011;38806;51.554;5.704;2023-07-22T01:41:18;17.92;;;12.27;;
50495;SDS011;38806;51.554;5.704;2023-07-22T01:43:18;19.15;;;11.05;;
50495;SDS011;38806;51.554;5.704;2023-07-22T01:45:18;20.05;;;10.73;;
50495;SDS011;38806;51.554;5.704;2023-07-22T01:47:19;18.27;;;11.07;;
50495;SDS011;38806;51.554;5.704;2023-07-22T01:49:19;19.08;;;11.13;;
50495;SDS011;38806;51.554;5.704;2023-07-22T01:51:19;19.63;;;10.98;;
50495;SDS011;38806;51.554;5.704;2023-07-22T01:53:19;17.90;;;9.73;;
50495;SDS011;38806;51.554;5.704;2023-07-22T01:55:20;19.42;;;12.63;;
50495;SDS011;38806;51.554;5.704;2023-07-22T01:57:20;16.42;;;11.23;;
50495;SDS011;38806;51.554;5.704;2023-07-22T01:59:21;20.52;;;11.70;;
50495;SDS011;38806;51.554;5.704;2023-07-22T02:01:21;19.42;;;11.90;;
50495;SDS011;38806;51.554;5.704;2023-07-22T02:03:21;17.77;;;11.32;;
50495;SDS011;38806;51.554;5.704;2023-07-22T02:05:21;15.88;;;10.43;;
50495;SDS011;38806;51.554;5.704;2023-07-22T02:07:21;17.58;;;11.55;;
50495;SDS011;38806;51.554;5.704;2023-07-22T02:09:22;21.55;;;13.10;;
50495;SDS011;38806;51.554;5.704;2023-07-22T02:11:22;18.27;;;11.90;;
50495;SDS011;38806;51.554;5.704;2023-07-22T02:13:22;21.48;;;11.85;;
50495;SDS011;38806;51.554;5.704;2023-07-22T02:15:23;20.33;;;11.93;;
50495;SDS011;38806;51.554;5.704;2023-07-22T02:17:24;19.55;;;11.52;;
50495;SDS011;38806;51.554;5.704;2023-07-22T02:19:24;18.17;;;10.20;;
50495;SDS011;38806;51.554;5.704;2023-07-22T02:21:24;18.05;;;11.07;;
50495;SDS011;38806;51.554;5.704;2023-07-22T02:23:24;17.67;;;11.05;;
50495;SDS011;38806;51.554;5.704;2023-07-22T02:25:25;18.42;;;11.73;;
50495;SDS011;38806;51.554;5.704;2023-07-22T02:27:25;19.08;;;9.50;;
50495;SDS011;38806;51.554;5.704;2023-07-22T02:29:25;16.38;;;9.73;;
50495;SDS011;38806;51.554;5.704;2023-07-22T02:31:25;17.17;;;11.65;;
50495;SDS011;38806;51.554;5.704;2023-07-22T02:33:26;18.02;;;11.75;;
50495;SDS011;38806;51.554;5.704;2023-07-22T02:35:26;20.05;;;11.63;;
50495;SDS011;38806;51.554;5.704;2023-07-22T02:37:26;15.38;;;10.10;;
50495;SDS011;38806;51.554;5.704;2023-07-22T02:39:26;21.60;;;11.67;;
50495;SDS011;38806;51.554;5.704;2023-07-22T02:41:26;19.63;;;11.18;;
50495;SDS011;38806;51.554;5.704;2023-07-22T02:43:27;14.25;;;10.30;;
50495;SDS011;38806;51.554;5.704;2023-07-22T02:45:27;18.92;;;11.32;;
50495;SDS011;38806;51.554;5.704;2023-07-22T02:47:27;15.48;;;10.48;;
50495;SDS011;38806;51.554;5.704;2023-07-22T02:49:28;20.23;;;11.63;;
50495;SDS011;38806;51.554;5.704;2023-07-22T02:51:28;15.40;;;10.63;;
50495;SDS011;38806;51.554;5.704;2023-07-22T02:53:29;16.58;;;10.95;;
50495;SDS011;38806;51.554;5.704;2023-07-22T02:55:29;18.35;;;12.05;;
50495;SDS011;38806;51.554;5.704;2023-07-22T02:57:30;16.40;;;10.85;;
50495;SDS011;38806;51.554;5.704;2023-07-22T02:59:30;18.70;;;10.77;;
50495;SDS011;38806;51.554;5.704;2023-07-22T03:01:30;21.83;;;11.95;;
50495;SDS011;38806;51.554;5.704;2023-07-22T03:03:31;18.52;;;10.65;;
50495;SDS011;38806;51.554;5.704;2023-07-22T03:05:34;20.95;;;11.57;;
50495;SDS011;38806;51.554;5.704;2023-07-22T03:07:34;22.17;;;11.40;;
50495;SDS011;38806;51.554;5.704;2023-07-22T03:09:35;21.40;;;11.55;;
50495;SDS011;38806;51.554;5.704;2023-07-22T03:11:35;20.85;;;12.75;;
50495;SDS011;38806;51.554;5.704;2023-07-22T03:13:35;22.85;;;10.35;;
50495;SDS011;38806;51.554;5.704;2023-07-22T03:15:35;18.27;;;10.90;;
50495;SDS011;38806;51.554;5.704;2023-07-22T03:17:36;19.52;;;12.75;;
50495;SDS011;38806;51.554;5.704;2023-07-22T03:19:36;16.25;;;11.73;;
50495;SDS011;38806;51.554;5.704;2023-07-22T03:21:36;22.25;;;13.68;;
50495;SDS011;38806;51.554;5.704;2023-07-22T03:23:37;18.98;;;11.90;;
50495;SDS011;38806;51.554;5.704;2023-07-22T03:25:37;17.60;;;10.30;;
50495;SDS011;38806;51.554;5.704;2023-07-22T03:27:37;23.20;;;12.80;;
50495;SDS011;38806;51.554;5.704;2023-07-22T03:29:38;17.15;;;10.95;;
50495;SDS011;38806;51.554;5.704;2023-07-22T03:31:38;23.55;;;13.15;;
50495;SDS011;38806;51.554;5.704;2023-07-22T03:33:39;23.90;;;13.38;;
50495;SDS011;38806;51.554;5.704;2023-07-22T03:35:39;33.75;;;12.75;;
50495;SDS011;38806;51.554;5.704;2023-07-22T03:37:39;19.90;;;12.40;;
50495;SDS011;38806;51.554;5.704;2023-07-22T03:39:40;20.10;;;12.40;;
50495;SDS011;38806;51.554;5.704;2023-07-22T03:41:40;18.52;;;11.63;;
50495;SDS011;38806;51.554;5.704;2023-07-22T03:43:40;22.48;;;13.40;;
50495;SDS011;38806;51.554;5.704;2023-07-22T03:45:40;28.23;;;13.38;;
50495;SDS011;38806;51.554;5.704;2023-07-22T03:47:40;18.30;;;11.32;;
50495;SDS011;38806;51.554;5.704;2023-07-22T03:49:41;20.88;;;11.80;;
50495;SDS011;38806;51.554;5.704;2023-07-22T03:51:41;21.00;;;11.52;;
50495;SDS011;38806;51.554;5.704;2023-07-22T03:53:41;17.70;;;11.85;;
50495;SDS011;38806;51.554;5.704;2023-07-22T03:55:41;26.25;;;14.57;;
50495;SDS011;38806;51.554;5.704;2023-07-22T03:57:41;20.70;;;12.60;;
50495;SDS011;38806;51.554;5.704;2023-07-22T03:59:42;23.27;;;13.60;;
50495;SDS011;38806;51.554;5.704;2023-07-22T04:01:42;22.40;;;11.20;;
50495;SDS011;38806;51.554;5.704;2023-07-22T04:03:43;23.75;;;12.95;;
50495;SDS011;38806;51.554;5.704;2023-07-22T04:05:43;23.75;;;13.05;;
50495;SDS011;38806;51.554;5.704;2023-07-22T04:07:44;22.70;;;13.43;;
50495;SDS011;38806;51.554;5.704;2023-07-22T04:09:44;23.15;;;12.18;;
50495;SDS011;38806;51.554;5.704;2023-07-22T04:11:47;19.52;;;12.10;;
50495;SDS011;38806;51.554;5.704;2023-07-22T04:13:47;23.23;;;14.30;;
50495;SDS011;38806;51.554;5.704;2023-07-22T04:15:48;25.35;;;13.57;;
50495;SDS011;38806;51.554;5.704;2023-07-22T04:17:49;25.70;;;13.73;;
50495;SDS011;38806;51.554;5.704;2023-07-22T04:19:50;28.35;;;14.85;;
50495;SDS011;38806;51.554;5.704;2023-07-22T04:21:51;26.50;;;14.32;;
50495;SDS011;38806;51.554;5.704;2023-07-22T04:23:51;22.65;;;12.02;;
50495;SDS011;38806;51.554;5.704;2023-07-22T04:25:52;27.67;;;15.23;;
50495;SDS011;38806;51.554;5.704;2023-07-22T04:27:52;23.30;;;13.48;;
50495;SDS011;38806;51.554;5.704;2023-07-22T04:29:53;26.65;;;15.13;;
50495;SDS011;38806;51.554;5.704;2023-07-22T04:31:59;24.38;;;14.00;;
50495;SDS011;38806;51.554;5.704;2023-07-22T04:34:00;26.55;;;13.77;;
50495;SDS011;38806;51.554;5.704;2023-07-22T04:36:00;22.50;;;15.27;;
50495;SDS011;38806;51.554;5.704;2023-07-22T04:38:01;27.52;;;15.15;;
50495;SDS011;38806;51.554;5.704;2023-07-22T04:40:01;26.02;;;15.90;;
50495;SDS011;38806;51.554;5.704;2023-07-22T04:42:05;24.60;;;14.63;;
50495;SDS011;38806;51.554;5.704;2023-07-22T04:44:05;29.40;;;15.43;;
50495;SDS011;38806;51.554;5.704;2023-07-22T04:46:06;23.65;;;13.82;;
50495;SDS011;38806;51.554;5.704;2023-07-22T04:48:07;21.67;;;15.13;;
50495;SDS011;38806;51.554;5.704;2023-07-22T04:50:07;24.48;;;13.07;;
50495;SDS011;38806;51.554;5.704;2023-07-22T04:52:09;21.85;;;12.32;;
50495;SDS011;38806;51.554;5.704;2023-07-22T04:54:09;26.75;;;13.90;;
50495;SDS011;38806;51.554;5.704;2023-07-22T04:56:09;25.35;;;14.65;;
50495;SDS011;38806;51.554;5.704;2023-07-22T04:58:10;25.70;;;14.38;;
50495;SDS011;38806;51.554;5.704;2023-07-22T05:00:11;27.52;;;13.45;;
50495;SDS011;38806;51.554;5.704;2023-07-22T05:02:16;22.85;;;13.73;;
50495;SDS011;38806;51.554;5.704;2023-07-22T05:04:16;20.48;;;12.68;;
50495;SDS011;38806;51.554;5.704;2023-07-22T05:06:16;29.60;;;14.85;;
50495;SDS011;38806;51.554;5.704;2023-07-22T05:08:16;22.05;;;11.98;;
50495;SDS011;38806;51.554;5.704;2023-07-22T05:10:16;22.23;;;13.35;;
50495;SDS011;38806;51.554;5.704;2023-07-22T05:12:17;21.90;;;12.20;;
50495;SDS011;38806;51.554;5.704;2023-07-22T05:14:17;21.30;;;13.43;;
50495;SDS011;38806;51.554;5.704;2023-07-22T05:16:17;29.40;;;14.25;;
50495;SDS011;38806;51.554;5.704;2023-07-22T05:18:18;22.80;;;13.68;;
50495;SDS011;38806;51.554;5.704;2023-07-22T05:20:18;23.35;;;12.82;;
50495;SDS011;38806;51.554;5.704;2023-07-22T05:22:18;18.52;;;11.73;;
50495;SDS011;38806;51.554;5.704;2023-07-22T05:24:18;27.48;;;13.57;;
50495;SDS011;38806;51.554;5.704;2023-07-22T05:26:20;21.27;;;12.18;;
50495;SDS011;38806;51.554;5.704;2023-07-22T05:28:21;17.05;;;11.43;;
50495;SDS011;38806;51.554;5.704;2023-07-22T05:30:21;23.38;;;13.35;;
50495;SDS011;38806;51.554;5.704;2023-07-22T05:32:21;22.45;;;11.65;;
50495;SDS011;38806;51.554;5.704;2023-07-22T05:34:21;19.10;;;11.07;;
50495;SDS011;38806;51.554;5.704;2023-07-22T05:36:22;18.67;;;10.25;;
50495;SDS011;38806;51.554;5.704;2023-07-22T05:38:22;18.50;;;10.90;;
50495;SDS011;38806;51.554;5.704;2023-07-22T05:40:22;18.70;;;11.65;;
50495;SDS011;38806;51.554;5.704;2023-07-22T05:42:22;21.33;;;10.90;;
50495;SDS011;38806;51.554;5.704;2023-07-22T05:44:23;19.13;;;10.82;;
50495;SDS011;38806;51.554;5.704;2023-07-22T05:46:23;20.25;;;11.77;;
50495;SDS011;38806;51.554;5.704;2023-07-22T05:48:23;18.38;;;11.95;;
50495;SDS011;38806;51.554;5.704;2023-07-22T05:50:23;18.52;;;12.57;;
50495;SDS011;38806;51.554;5.704;2023-07-22T05:52:24;17.42;;;11.85;;
50495;SDS011;38806;51.554;5.704;2023-07-22T05:54:24;18.50;;;11.03;;
50495;SDS011;38806;51.554;5.704;2023-07-22T05:56:24;20.75;;;11.43;;
50495;SDS011;38806;51.554;5.704;2023-07-22T05:58:24;19.75;;;12.65;;
50495;SDS011;38806;51.554;5.704;2023-07-22T06:00:24;20.15;;;12.32;;
50495;SDS011;38806;51.554;5.704;2023-07-22T06:02:25;20.37;;;11.70;;
50495;SDS011;38806;51.554;5.704;2023-07-22T06:04:25;26.58;;;11.85;;
50495;SDS011;38806;51.554;5.704;2023-07-22T06:06:25;18.98;;;10.10;;
50495;SDS011;38806;51.554;5.704;2023-07-22T06:08:25;23.73;;;13.02;;
50495;SDS011;38806;51.554;5.704;2023-07-22T06:10:26;19.33;;;12.45;;
50495;SDS011;38806;51.554;5.704;2023-07-22T06:12:26;22.77;;;13.35;;
50495;SDS011;38806;51.554;5.704;2023-07-22T06:14:26;20.13;;;11.73;;
50495;SDS011;38806;51.554;5.704;2023-07-22T06:16:27;20.48;;;11.38;;
50495;SDS011;38806;51.554;5.704;2023-07-22T06:18:27;24.80;;;12.68;;
50495;SDS011;38806;51.554;5.704;2023-07-22T06:20:27;17.90;;;10.60;;
50495;SDS011;38806;51.554;5.704;2023-07-22T06:22:28;18.77;;;12.00;;
50495;SDS011;38806;51.554;5.704;2023-07-22T06:24:28;18.17;;;10.65;;
50495;SDS011;38806;51.554;5.704;2023-07-22T06:26:28;21.38;;;11.52;;
50495;SDS011;38806;51.554;5.704;2023-07-22T06:28:29;21.40;;;13.88;;
50495;SDS011;38806;51.554;5.704;2023-07-22T06:30:29;17.80;;;11.23;;
50495;SDS011;38806;51.554;5.704;2023-07-22T06:32:29;21.23;;;14.15;;
50495;SDS011;38806;51.554;5.704;2023-07-22T06:34:29;19.27;;;11.82;;
50495;SDS011;38806;51.554;5.704;2023-07-22T06:36:30;21.95;;;11.88;;
50495;SDS011;38806;51.554;5.704;2023-07-22T06:38:30;18.75;;;10.88;;
50495;SDS011;38806;51.554;5.704;2023-07-22T06:40:30;21.45;;;11.35;;
50495;SDS011;38806;51.554;5.704;2023-07-22T06:42:30;15.48;;;10.13;;
50495;SDS011;38806;51.554;5.704;2023-07-22T06:44:30;15.85;;;10.10;;
50495;SDS011;38806;51.554;5.704;2023-07-22T06:46:31;19.13;;;12.37;;
50495;SDS011;38806;51.554;5.704;2023-07-22T06:48:31;18.97;;;11.60;;
50495;SDS011;38806;51.554;5.704;2023-07-22T06:50:31;22.65;;;12.45;;
50495;SDS011;38806;51.554;5.704;2023-07-22T06:52:31;18.03;;;13.27;;
50495;SDS011;38806;51.554;5.704;2023-07-22T06:54:32;19.30;;;12.68;;
50495;SDS011;38806;51.554;5.704;2023-07-22T06:56:32;20.63;;;13.43;;
50495;SDS011;38806;51.554;5.704;2023-07-22T06:58:32;18.27;;;12.70;;
50495;SDS011;38806;51.554;5.704;2023-07-22T07:00:32;18.48;;;12.23;;
50495;SDS011;38806;51.554;5.704;2023-07-22T07:02:33;17.97;;;9.67;;
50495;SDS011;38806;51.554;5.704;2023-07-22T07:04:33;18.23;;;11.03;;
50495;SDS011;38806;51.554;5.704;2023-07-22T07:06:33;23.30;;;12.57;;
50495;SDS011;38806;51.554;5.704;2023-07-22T07:08:33;22.42;;;11.85;;
50495;SDS011;38806;51.554;5.704;2023-07-22T07:10:37;20.63;;;11.25;;
50495;SDS011;38806;51.554;5.704;2023-07-22T07:12:38;22.92;;;12.32;;
50495;SDS011;38806;51.554;5.704;2023-07-22T07:14:38;20.83;;;12.75;;
50495;SDS011;38806;51.554;5.704;2023-07-22T07:16:39;19.13;;;12.00;;
50495;SDS011;38806;51.554;5.704;2023-07-22T07:18:39;20.85;;;12.15;;
50495;SDS011;38806;51.554;5.704;2023-07-22T07:20:39;18.50;;;11.10;;
50495;SDS011;38806;51.554;5.704;2023-07-22T07:22:39;20.90;;;11.70;;
50495;SDS011;38806;51.554;5.704;2023-07-22T07:24:39;21.95;;;11.90;;
50495;SDS011;38806;51.554;5.704;2023-07-22T07:26:40;20.33;;;12.13;;
50495;SDS011;38806;51.554;5.704;2023-07-22T07:28:40;17.52;;;11.95;;
50495;SDS011;38806;51.554;5.704;2023-07-22T07:30:40;19.83;;;12.23;;
50495;SDS011;38806;51.554;5.704;2023-07-22T07:32:40;16.70;;;11.23;;
50495;SDS011;38806;51.554;5.704;2023-07-22T07:34:41;17.83;;;10.00;;
50495;SDS011;38806;51.554;5.704;2023-07-22T07:36:41;19.63;;;11.47;;
50495;SDS011;38806;51.554;5.704;2023-07-22T07:38:41;21.52;;;11.38;;
50495;SDS011;38806;51.554;5.704;2023-07-22T07:40:42;19.88;;;11.20;;
50495;SDS011;38806;51.554;5.704;2023-07-22T07:42:42;19.35;;;9.90;;
50495;SDS011;38806;51.554;5.704;2023-07-22T07:44:43;16.63;;;11.07;;
50495;SDS011;38806;51.554;5.704;2023-07-22T07:46:43;15.90;;;10.03;;
50495;SDS011;38806;51.554;5.704;2023-07-22T07:48:46;17.73;;;10.13;;
50495;SDS011;38806;51.554;5.704;2023-07-22T07:50:47;18.88;;;11.32;;
50495;SDS011;38806;51.554;5.704;2023-07-22T07:52:47;15.87;;;9.83;;
50495;SDS011;38806;51.554;5.704;2023-07-22T07:54:48;16.88;;;11.35;;
50495;SDS011;38806;51.554;5.704;2023-07-22T07:56:48;24.42;;;11.60;;
50495;SDS011;38806;51.554;5.704;2023-07-22T07:58:49;17.83;;;9.68;;
50495;SDS011;38806;51.554;5.704;2023-07-22T08:00:49;18.15;;;10.23;;
50495;SDS011;38806;51.554;5.704;2023-07-22T08:02:49;16.17;;;10.83;;
50495;SDS011;38806;51.554;5.704;2023-07-22T08:04:50;16.00;;;10.10;;
50495;SDS011;38806;51.554;5.704;2023-07-22T08:06:50;18.20;;;10.77;;
50495;SDS011;38806;51.554;5.704;2023-07-22T08:08:50;16.30;;;9.88;;
50495;SDS011;38806;51.554;5.704;2023-07-22T08:10:57;16.53;;;9.03;;
50495;SDS011;38806;51.554;5.704;2023-07-22T08:12:57;19.35;;;10.10;;
50495;SDS011;38806;51.554;5.704;2023-07-22T08:14:58;15.18;;;9.73;;
50495;SDS011;38806;51.554;5.704;2023-07-22T08:16:58;14.43;;;9.68;;
50495;SDS011;38806;51.554;5.704;2023-07-22T08:18:58;17.33;;;8.90;;
50495;SDS011;38806;51.554;5.704;2023-07-22T08:20:59;17.95;;;8.73;;
50495;SDS011;38806;51.554;5.704;2023-07-22T08:22:59;17.63;;;9.05;;
50495;SDS011;38806;51.554;5.704;2023-07-22T08:24:59;17.63;;;8.50;;
50495;SDS011;38806;51.554;5.704;2023-07-22T08:26:59;14.70;;;8.53;;
50495;SDS011;38806;51.554;5.704;2023-07-22T08:29:00;14.07;;;7.97;;
50495;SDS011;38806;51.554;5.704;2023-07-22T08:31:00;15.20;;;7.60;;
50495;SDS011;38806;51.554;5.704;2023-07-22T08:33:03;16.63;;;8.73;;
50495;SDS011;38806;51.554;5.704;2023-07-22T08:35:03;12.00;;;7.20;;
50495;SDS011;38806;51.554;5.704;2023-07-22T08:37:04;12.20;;;7.38;;
50495;SDS011;38806;51.554;5.704;2023-07-22T08:39:04;13.32;;;8.88;;
50495;SDS011;38806;51.554;5.704;2023-07-22T08:41:05;13.07;;;9.18;;
50495;SDS011;38806;51.554;5.704;2023-07-22T08:43:06;11.07;;;6.65;;
50495;SDS011;38806;51.554;5.704;2023-07-22T08:45:09;12.73;;;6.97;;
50495;SDS011;38806;51.554;5.704;2023-07-22T08:47:10;15.32;;;8.18;;
50495;SDS011;38806;51.554;5.704;2023-07-22T08:49:13;10.95;;;6.75;;
50495;SDS011;38806;51.554;5.704;2023-07-22T08:51:15;13.15;;;7.35;;
50495;SDS011;38806;51.554;5.704;2023-07-22T08:53:16;14.88;;;7.20;;
50495;SDS011;38806;51.554;5.704;2023-07-22T08:55:16;12.93;;;8.38;;
50495;SDS011;38806;51.554;5.704;2023-07-22T08:57:18;15.23;;;7.00;;
50495;SDS011;38806;51.554;5.704;2023-07-22T08:59:18;12.60;;;7.40;;
50495;SDS011;38806;51.554;5.704;2023-07-22T09:01:19;14.55;;;6.65;;
50495;SDS011;38806;51.554;5.704;2023-07-22T09:03:19;15.85;;;9.02;;
50495;SDS011;38806;51.554;5.704;2023-07-22T09:05:19;9.38;;;6.10;;
50495;SDS011;38806;51.554;5.704;2023-07-22T09:07:20;11.35;;;7.07;;
50495;SDS011;38806;51.554;5.704;2023-07-22T09:09:21;8.93;;;5.57;;
50495;SDS011;38806;51.554;5.704;2023-07-22T09:11:22;11.70;;;5.90;;
50495;SDS011;38806;51.554;5.704;2023-07-22T09:13:23;12.45;;;6.60;;
50495;SDS011;38806;51.554;5.704;2023-07-22T09:15:24;11.15;;;6.00;;
50495;SDS011;38806;51.554;5.704;2023-07-22T09:17:25;9.02;;;6.18;;
50495;SDS011;38806;51.554;5.704;2023-07-22T09:19:26;8.40;;;4.93;;
50495;SDS011;38806;51.554;5.704;2023-07-22T09:21:27;10.45;;;6.00;;
50495;SDS011;38806;51.554;5.704;2023-07-22T09:23:31;10.00;;;5.88;;
50495;SDS011;38806;51.554;5.704;2023-07-22T09:25:32;12.73;;;6.32;;
50495;SDS011;38806;51.554;5.704;2023-07-22T09:27:32;10.73;;;5.63;;
50495;SDS011;38806;51.554;5.704;2023-07-22T09:29:33;10.18;;;5.57;;
50495;SDS011;38806;51.554;5.704;2023-07-22T09:31:34;13.20;;;5.57;;
50495;SDS011;38806;51.554;5.704;2023-07-22T09:33:48;8.50;;;5.22;;
50495;SDS011;38806;51.554;5.704;2023-07-22T09:35:48;7.68;;;4.45;;
50495;SDS011;38806;51.554;5.704;2023-07-22T09:37:49;7.28;;;3.80;;
50495;SDS011;38806;51.554;5.704;2023-07-22T09:39:49;13.05;;;6.75;;
50495;SDS011;38806;51.554;5.704;2023-07-22T09:41:50;10.03;;;4.30;;
50495;SDS011;38806;51.554;5.704;2023-07-22T09:43:50;7.38;;;5.13;;
50495;SDS011;38806;51.554;5.704;2023-07-22T09:45:50;9.60;;;4.10;;
50495;SDS011;38806;51.554;5.704;2023-07-22T09:47:51;9.10;;;4.97;;
50495;SDS011;38806;51.554;5.704;2023-07-22T09:49:52;9.00;;;4.43;;
50495;SDS011;38806;51.554;5.704;2023-07-22T09:51:52;9.65;;;5.18;;
50495;SDS011;38806;51.554;5.704;2023-07-22T09:54:01;7.97;;;5.10;;
50495;SDS011;38806;51.554;5.704;2023-07-22T09:56:04;7.53;;;4.30;;
50495;SDS011;38806;51.554;5.704;2023-07-22T09:58:04;7.95;;;4.90;;
50495;SDS011;38806;51.554;5.704;2023-07-22T10:00:05;15.57;;;5.82;;
50495;SDS011;38806;51.554;5.704;2023-07-22T10:02:08;8.10;;;3.92;;
50495;SDS011;38806;51.554;5.704;2023-07-22T10:04:10;8.50;;;3.47;;
50495;SDS011;38806;51.554;5.704;2023-07-22T10:06:12;8.95;;;5.03;;
50495;SDS011;38806;51.554;5.704;2023-07-22T10:08:13;10.88;;;4.68;;
50495;SDS011;38806;51.554;5.704;2023-07-22T10:10:17;6.55;;;3.90;;
50495;SDS011;38806;51.554;5.704;2023-07-22T10:12:18;10.90;;;4.15;;
50495;SDS011;38806;51.554;5.704;2023-07-22T10:14:18;7.53;;;4.15;;
50495;SDS011;38806;51.554;5.704;2023-07-22T10:16:19;7.18;;;3.80;;
50495;SDS011;38806;51.554;5.704;2023-07-22T10:18:19;6.68;;;4.60;;
50495;SDS011;38806;51.554;5.704;2023-07-22T10:20:21;6.45;;;3.25;;
50495;SDS011;38806;51.554;5.704;2023-07-22T10:22:21;9.68;;;4.03;;
50495;SDS011;38806;51.554;5.704;2023-07-22T10:24:22;8.33;;;4.27;;
50495;SDS011;38806;51.554;5.704;2023-07-22T10:26:22;11.07;;;3.73;;
50495;SDS011;38806;51.554;5.704;2023-07-22T10:28:22;7.60;;;4.03;;
50495;SDS011;38806;51.554;5.704;2023-07-22T10:30:23;5.63;;;3.53;;
50495;SDS011;38806;51.554;5.704;2023-07-22T10:32:23;6.27;;;3.27;;
50495;SDS011;38806;51.554;5.704;2023-07-22T10:34:24;11.88;;;4.95;;
50495;SDS011;38806;51.554;5.704;2023-07-22T10:36:27;9.30;;;3.90;;
50495;SDS011;38806;51.554;5.704;2023-07-22T10:38:28;11.15;;;4.50;;
50495;SDS011;38806;51.554;5.704;2023-07-22T10:40:29;10.90;;;4.40;;
50495;SDS011;38806;51.554;5.704;2023-07-22T10:42:31;7.40;;;3.78;;
50495;SDS011;38806;51.554;5.704;2023-07-22T10:44:32;7.82;;;3.28;;
50495;SDS011;38806;51.554;5.704;2023-07-22T10:46:36;6.35;;;3.30;;
50495;SDS011;38806;51.554;5.704;2023-07-22T10:48:40;7.25;;;3.63;;
50495;SDS011;38806;51.554;5.704;2023-07-22T10:50:42;7.28;;;3.63;;
50495;SDS011;38806;51.554;5.704;2023-07-22T10:52:43;7.65;;;3.75;;
50495;SDS011;38806;51.554;5.704;2023-07-22T10:54:44;11.85;;;4.18;;
50495;SDS011;38806;51.554;5.704;2023-07-22T10:56:44;7.53;;;3.50;;
50495;SDS011;38806;51.554;5.704;2023-07-22T11:00:45;8.47;;;4.20;;
50495;SDS011;38806;51.554;5.704;2023-07-22T11:02:45;8.57;;;3.90;;
50495;SDS011;38806;51.554;5.704;2023-07-22T11:04:47;9.57;;;4.60;;
50495;SDS011;38806;51.554;5.704;2023-07-22T11:08:47;9.03;;;3.67;;
50495;SDS011;38806;51.554;5.704;2023-07-22T11:10:54;5.70;;;3.80;;
50495;SDS011;38806;51.554;5.704;2023-07-22T11:12:55;10.00;;;3.40;;
50495;SDS011;38806;51.554;5.704;2023-07-22T11:15:02;6.13;;;2.72;;
50495;SDS011;38806;51.554;5.704;2023-07-22T11:17:03;4.25;;;2.60;;
50495;SDS011;38806;51.554;5.704;2023-07-22T11:19:04;4.82;;;2.13;;
50495;SDS011;38806;51.554;5.704;2023-07-22T11:21:10;6.78;;;2.67;;
50495;SDS011;38806;51.554;5.704;2023-07-22T11:23:11;9.60;;;4.60;;
50495;SDS011;38806;51.554;5.704;2023-07-22T11:25:16;5.77;;;2.03;;
50495;SDS011;38806;51.554;5.704;2023-07-22T11:27:16;4.28;;;2.25;;
50495;SDS011;38806;51.554;5.704;2023-07-22T11:29:17;4.50;;;2.63;;
50495;SDS011;38806;51.554;5.704;2023-07-22T11:31:17;5.45;;;1.98;;
50495;SDS011;38806;51.554;5.704;2023-07-22T11:33:17;6.57;;;2.67;;
50495;SDS011;38806;51.554;5.704;2023-07-22T11:35:17;4.30;;;1.90;;
50495;SDS011;38806;51.554;5.704;2023-07-22T11:37:19;4.25;;;1.88;;
50495;SDS011;38806;51.554;5.704;2023-07-22T11:39:20;6.73;;;2.07;;
50495;SDS011;38806;51.554;5.704;2023-07-22T11:41:20;3.88;;;1.65;;
50495;SDS011;38806;51.554;5.704;2023-07-22T11:43:21;5.07;;;1.92;;
50495;SDS011;38806;51.554;5.704;2023-07-22T11:45:22;5.00;;;1.80;;
50495;SDS011;38806;51.554;5.704;2023-07-22T11:47:28;3.87;;;1.53;;
50495;SDS011;38806;51.554;5.704;2023-07-22T11:51:28;3.15;;;2.08;;
50495;SDS011;38806;51.554;5.704;2023-07-22T11:53:29;5.90;;;2.10;;
50495;SDS011;38806;51.554;5.704;2023-07-22T11:55:29;7.20;;;1.93;;
50495;SDS011;38806;51.554;5.704;2023-07-22T11:57:29;5.37;;;2.40;;